Skip Navigation LinksHome page > Weather > Current weather Skip Navigation Links

Current Weather

Indira Gandhi Intl Apt, New Delhi, India

For information only: do not use for flight planning or navigation.
Latest weather
Observation time Friday, March 23, 2018 12:30 PM IST
Local time Friday, March 23, 2018 12:46 PM IST
Flight conditions Instrument Meteorological Conditions
Wind direction West-Northwest (290°)
Wind speed 9 mph
Visibility 2 mi.
Present weather haze
Sky condition
Ceiling unlimited
Temperature 82°F
Dewpoint 52°F
Altimeter 29.88 in.Hg
Derived measurements
Relative humidity 35%
Heat index 82°F
Density altitude 2489 ft.
No significant changes expected in the next two hours.
METAR VIDP 230700Z 29008KT 3200 HZ NSC 28/11 Q1012 NOSIG


Location code

InnerDrive.Weather 4.0.6615.0 Release CLR 4.0.30319.42000
Copyright ©2018 Inner Drive Technology. All rights reserved. Portions Copyright ©1986-2018 David Braverman.

Find weather

Site navigation

Skip Navigation Links

Place info

Page info

PayPal - The safer, easier way to pay online!

Return home.

Copyright ©2018 Inner Drive Technology. Purveyors of fine, hand-crafted computer software. Page printed 2018-03-23T07:16:51 UTC.